createdAt,value
2023-03-21T00:01:56.181Z,101072.88
2023-03-21T00:04:28.426Z,100999.06
2023-03-21T00:07:04.282Z,101061.03
2023-03-21T00:09:33.904Z,101064.41
2023-03-21T00:12:02.738Z,101072.91
2023-03-21T00:14:32.560Z,101061.91
2023-03-21T00:17:02.613Z,101056.78
2023-03-21T00:19:30.475Z,101063.56
2023-03-21T00:22:07.957Z,101051.75
2023-03-21T00:24:38.189Z,101051.72
2023-03-21T00:27:34.564Z,101052.59
2023-03-21T00:29:58.605Z,101045.78
2023-03-21T00:32:32.781Z,101043.22
2023-03-21T00:35:31.640Z,101045.78
2023-03-21T00:37:53.728Z,101047.50
2023-03-21T00:40:29.320Z,101043.22
2023-03-21T00:43:04.776Z,101050.81
2023-03-21T00:45:32.942Z,101049.91
2023-03-21T00:48:00.765Z,101045.72
2023-03-21T00:50:34.239Z,101048.25
2023-03-21T00:53:05.973Z,101052.50
2023-03-21T00:55:37.437Z,101052.53
2023-03-21T00:58:07.845Z,101052.53
2023-03-21T01:00:37.241Z,101056.75
2023-03-21T01:03:23.259Z,101053.31
2023-03-21T01:06:05.594Z,101055.00
2023-03-21T01:08:50.446Z,101016.81
2023-03-21T01:11:24.854Z,101066.97
2023-03-21T01:14:07.103Z,101057.66
2023-03-21T01:16:38.208Z,101058.44
2023-03-21T01:19:22.247Z,101032.97
2023-03-21T01:21:55.068Z,101065.25
2023-03-21T01:24:25.116Z,101064.38
2023-03-21T01:26:54.192Z,101059.28
2023-03-21T01:29:24.114Z,101059.25
2023-03-21T01:31:53.675Z,101067.78
2023-03-21T01:34:21.399Z,101070.34
2023-03-21T01:36:51.300Z,101071.97
2023-03-21T01:39:23.462Z,101065.25
2023-03-21T01:41:51.248Z,101065.25
2023-03-21T01:44:21.024Z,101065.25
2023-03-21T01:47:07.724Z,101070.31
2023-03-21T01:49:45.837Z,101070.31
2023-03-21T01:52:35.275Z,101065.25
2023-03-21T01:55:07.041Z,101061.78
2023-03-21T01:57:49.433Z,101070.28
2023-03-21T02:00:29.515Z,101068.59
2023-03-21T02:03:11.722Z,101070.31
2023-03-21T02:05:53.289Z,101076.13
2023-03-21T02:08:36.769Z,101079.50
2023-03-21T02:11:10.621Z,101079.56
2023-03-21T02:13:40.302Z,101078.66
2023-03-21T02:16:21.219Z,101089.66
2023-03-21T02:18:58.340Z,101083.00
2023-03-21T02:21:47.427Z,101087.28
2023-03-21T02:25:01.235Z,101091.47
2023-03-21T02:27:38.558Z,101087.22
2023-03-21T02:30:50.826Z,101090.59
2023-03-21T02:33:38.945Z,101095.66
2023-03-21T02:36:20.793Z,101096.50
2023-03-21T02:38:56.173Z,101099.88
2023-03-21T02:41:40.697Z,101095.69
2023-03-21T02:44:18.081Z,101093.16
2023-03-21T02:47:04.610Z,101097.44
2023-03-21T02:49:42.986Z,101096.56
2023-03-21T02:52:35.593Z,101090.69
2023-03-21T02:55:13.681Z,101094.78
2023-03-21T02:57:47.511Z,101094.88
2023-03-21T03:00:20.095Z,101097.47
2023-03-21T03:03:02.695Z,101099.13
2023-03-21T03:05:42.994Z,101096.56
2023-03-21T03:08:38.489Z,101096.59
2023-03-21T03:11:25.214Z,101100.72
2023-03-21T03:14:31.566Z,101087.91
2023-03-21T03:17:08.370Z,101104.16
2023-03-21T03:19:53.661Z,101098.28
2023-03-21T03:22:26.385Z,101081.25
2023-03-21T03:25:12.631Z,101095.63
2023-03-21T03:27:52.328Z,101095.69
2023-03-21T03:30:29.627Z,101101.66
2023-03-21T03:33:04.404Z,101093.19
2023-03-21T03:35:36.615Z,101104.91
2023-03-21T03:38:07.548Z,101109.03
2023-03-21T03:40:44.182Z,101048.75
2023-03-21T03:43:17.964Z,101117.56
2023-03-21T03:45:52.492Z,101121.91
2023-03-21T03:48:26.393Z,101121.78
2023-03-21T03:51:04.359Z,101127.69
2023-03-21T03:53:38.143Z,101109.97
2023-03-21T03:56:11.678Z,101127.91
2023-03-21T03:58:45.994Z,101123.53
2023-03-21T04:01:18.066Z,101115.97
2023-03-21T04:03:51.065Z,101123.34
2023-03-21T04:06:26.320Z,101100.44
2023-03-21T04:08:53.992Z,101126.84
2023-03-21T04:11:21.703Z,101122.56
2023-03-21T04:13:54.374Z,101121.78
2023-03-21T04:16:23.358Z,101126.97
2023-03-21T04:18:52.496Z,101120.97
2023-03-21T04:21:24.490Z,101115.88
2023-03-21T04:23:54.773Z,101119.34
2023-03-21T04:26:24.942Z,101115.88
2023-03-21T04:28:56.407Z,101120.81
2023-03-21T04:31:27.445Z,101130.09
2023-03-21T04:33:59.393Z,101134.28
2023-03-21T04:36:33.171Z,101146.16
2023-03-21T04:39:06.708Z,101141.28
2023-03-21T04:41:34.436Z,101140.31
2023-03-21T04:44:06.184Z,101139.59
2023-03-21T04:46:36.302Z,101139.66
2023-03-21T04:49:04.490Z,101149.75
2023-03-21T04:51:34.631Z,101146.34
2023-03-21T04:54:04.261Z,101155.78
2023-03-21T04:56:33.945Z,101136.16
2023-03-21T04:59:10.285Z,101154.81
2023-03-21T05:01:41.139Z,101140.44
2023-03-21T05:04:08.904Z,101148.91
2023-03-21T05:06:38.633Z,101155.75
2023-03-21T05:09:08.490Z,101151.47
2023-03-21T05:11:38.755Z,101160.00
2023-03-21T05:14:14.684Z,101097.94
2023-03-21T05:16:48.582Z,101156.56
2023-03-21T05:19:17.543Z,101091.22
2023-03-21T05:21:48.896Z,101157.53
2023-03-21T05:24:20.564Z,101160.91
2023-03-21T05:26:52.495Z,101124.34
2023-03-21T05:29:23.623Z,101160.97
2023-03-21T05:31:53.487Z,101154.22
2023-03-21T05:34:21.314Z,101160.06
2023-03-21T05:36:50.896Z,101148.34
2023-03-21T05:39:21.043Z,101152.56
2023-03-21T05:41:48.784Z,101150.09
2023-03-21T05:44:18.499Z,101148.38
2023-03-21T05:46:49.454Z,101145.88
2023-03-21T05:49:17.138Z,101142.47
2023-03-21T05:51:47.237Z,101142.50
2023-03-21T05:54:16.718Z,101138.28
2023-03-21T05:56:44.615Z,101158.66
2023-03-21T05:59:14.169Z,101155.28
2023-03-21T06:01:44.057Z,101154.44
2023-03-21T06:04:13.170Z,101154.44
2023-03-21T06:06:42.934Z,101157.84
2023-03-21T06:09:13.630Z,101155.28
2023-03-21T06:11:49.128Z,101158.66
2023-03-21T06:14:19.367Z,101105.94
2023-03-21T06:16:47.063Z,101161.19
2023-03-21T06:19:18.116Z,101166.38
2023-03-21T06:21:48.328Z,101161.25
2023-03-21T06:24:17.783Z,101167.22
2023-03-21T06:26:47.586Z,101170.63
2023-03-21T06:29:17.452Z,101167.22
2023-03-21T06:31:45.376Z,101133.25
2023-03-21T06:34:18.458Z,101157.84
2023-03-21T06:36:47.068Z,101159.50
2023-03-21T06:39:16.053Z,101162.06
2023-03-21T06:41:47.851Z,101166.34
2023-03-21T06:44:15.834Z,101154.47
2023-03-21T06:46:43.985Z,101164.66
2023-03-21T06:49:17.872Z,101163.75
2023-03-21T06:51:47.000Z,101162.91
2023-03-21T06:54:17.699Z,101165.44
2023-03-21T06:56:47.407Z,101159.50
2023-03-21T06:59:15.251Z,101123.00
2023-03-21T07:01:43.763Z,101164.56
2023-03-21T07:04:17.511Z,101171.41
2023-03-21T07:06:46.662Z,101163.59
2023-03-21T07:09:17.912Z,101172.09
2023-03-21T07:11:47.641Z,101176.28
2023-03-21T07:14:15.391Z,101177.25
2023-03-21T07:16:43.322Z,101168.63
2023-03-21T07:19:11.141Z,101167.66
2023-03-21T07:21:38.953Z,101163.50
2023-03-21T07:24:08.470Z,101172.75
2023-03-21T07:26:38.256Z,101164.94
2023-03-21T07:29:06.004Z,101168.34
2023-03-21T07:31:36.732Z,101164.94
2023-03-21T07:34:06.540Z,101167.56
2023-03-21T07:36:34.269Z,101114.03
2023-03-21T07:39:04.946Z,101166.63
2023-03-21T07:41:36.370Z,101177.63
2023-03-21T07:44:04.092Z,101189.72
2023-03-21T07:46:33.979Z,101187.19
2023-03-21T07:49:03.561Z,101186.31
2023-03-21T07:51:31.250Z,101185.19
2023-03-21T07:54:01.260Z,101195.22
2023-03-21T07:56:30.972Z,101194.25
2023-03-21T07:59:00.274Z,101191.31
2023-03-21T08:01:28.143Z,101187.16
2023-03-21T08:03:55.954Z,101191.44
2023-03-21T08:06:23.916Z,101195.66
2023-03-21T08:08:51.740Z,101192.97
2023-03-21T08:11:21.615Z,101192.06
2023-03-21T08:13:49.566Z,101185.31
2023-03-21T08:16:20.790Z,101200.78
2023-03-21T08:18:48.635Z,101193.97
2023-03-21T08:21:16.743Z,101204.44
2023-03-21T08:23:44.862Z,101205.34
2023-03-21T08:26:18.370Z,101204.31
2023-03-21T08:28:48.299Z,101206.91
2023-03-21T08:31:16.096Z,101206.00
2023-03-21T08:33:49.369Z,101206.81
2023-03-21T08:36:19.318Z,101200.22
2023-03-21T08:38:48.474Z,101194.31
2023-03-21T08:41:18.538Z,101189.13
2023-03-21T08:43:48.607Z,101189.78
2023-03-21T08:46:16.528Z,101181.19
2023-03-21T08:48:47.479Z,101186.03
2023-03-21T08:51:17.454Z,101186.56
2023-03-21T08:53:45.171Z,101188.19
2023-03-21T08:56:15.297Z,101184.28
2023-03-21T08:58:44.953Z,101177.09
2023-03-21T09:01:15.670Z,101166.94
2023-03-21T09:03:46.322Z,101180.81
2023-03-21T09:06:14.328Z,101186.81
2023-03-21T09:08:43.366Z,101175.25
2023-03-21T09:11:11.858Z,101177.81
2023-03-21T09:13:39.665Z,101179.63
2023-03-21T09:16:08.092Z,101187.47
2023-03-21T09:18:57.385Z,101195.34
2023-03-21T09:21:28.004Z,101190.28
2023-03-21T09:24:00.688Z,101182.16
2023-03-21T09:26:30.778Z,101173.22
2023-03-21T09:28:59.023Z,101174.59
2023-03-21T09:31:28.430Z,101159.22
2023-03-21T09:33:59.006Z,101187.97
2023-03-21T09:36:28.115Z,101182.88
2023-03-21T09:38:58.792Z,101186.53
2023-03-21T09:41:38.483Z,101180.56
2023-03-21T09:44:24.664Z,101149.19
2023-03-21T09:47:02.609Z,101179.06
2023-03-21T09:49:34.736Z,101113.41
2023-03-21T09:52:14.048Z,101172.69
2023-03-21T09:54:44.879Z,101174.50
2023-03-21T09:57:23.868Z,101142.47
2023-03-21T09:59:56.705Z,101183.28
2023-03-21T10:02:37.702Z,101175.41
2023-03-21T10:05:14.469Z,101174.63
2023-03-21T10:07:52.239Z,101170.00
2023-03-21T10:10:26.849Z,101169.19
2023-03-21T10:12:57.596Z,101164.34
2023-03-21T10:15:29.923Z,101171.97
2023-03-21T10:18:01.487Z,101169.13
2023-03-21T10:20:32.781Z,101166.47
2023-03-21T10:23:06.694Z,101157.41
2023-03-21T10:25:37.971Z,101127.09
2023-03-21T10:28:08.422Z,101162.25
2023-03-21T10:30:42.334Z,101166.72
2023-03-21T10:33:18.373Z,101161.63
2023-03-21T10:35:51.159Z,101152.66
2023-03-21T10:38:25.959Z,101151.72
2023-03-21T10:40:56.544Z,101155.56
2023-03-21T10:43:37.890Z,101146.56
2023-03-21T10:46:15.698Z,101153.31
2023-03-21T10:48:49.114Z,101154.56
2023-03-21T10:51:22.761Z,101148.88
2023-03-21T10:53:57.008Z,101144.09
2023-03-21T10:56:29.705Z,101139.25
2023-03-21T10:58:59.754Z,101140.81
2023-03-21T11:01:32.216Z,101145.28
2023-03-21T11:04:08.005Z,101144.41
2023-03-21T11:06:40.220Z,101137.16
2023-03-21T11:09:16.657Z,101138.38
2023-03-21T11:11:54.342Z,101139.22
2023-03-21T11:14:41.088Z,101130.69
2023-03-21T11:17:23.016Z,101126.28
2023-03-21T11:19:54.335Z,101095.75
2023-03-21T11:22:27.126Z,101123.53
2023-03-21T11:25:00.973Z,101130.50
2023-03-21T11:27:30.518Z,101126.06
2023-03-21T11:29:59.963Z,101121.91
2023-03-21T11:32:34.054Z,101126.72
2023-03-21T11:35:04.842Z,101120.66
2023-03-21T11:37:36.642Z,101117.09
2023-03-21T11:40:21.650Z,101110.06
2023-03-21T11:42:53.801Z,101107.28
2023-03-21T11:45:23.902Z,101115.69
2023-03-21T11:47:54.128Z,101104.59
2023-03-21T11:50:34.494Z,101106.28
2023-03-21T11:53:32.017Z,101108.97
2023-03-21T11:56:11.838Z,101105.47
2023-03-21T11:58:53.097Z,101098.84
2023-03-21T12:01:29.120Z,101099.22
2023-03-21T12:04:03.966Z,101089.81
2023-03-21T12:06:37.363Z,101098.63
2023-03-21T12:09:22.888Z,101089.13
2023-03-21T12:12:04.270Z,101089.91
2023-03-21T12:14:38.926Z,101092.66
2023-03-21T12:17:18.294Z,101094.81
2023-03-21T12:19:59.020Z,101095.69
2023-03-21T12:22:40.747Z,101090.41
2023-03-21T12:25:14.623Z,101084.28
2023-03-21T12:27:53.570Z,101087.97
2023-03-21T12:30:33.228Z,101089.28
2023-03-21T12:33:26.671Z,101086.59
2023-03-21T12:36:09.579Z,101079.41
2023-03-21T12:38:44.956Z,101084.44
2023-03-21T12:41:25.553Z,101090.66
2023-03-21T12:44:03.057Z,101049.59
2023-03-21T12:46:36.877Z,101081.53
2023-03-21T12:49:12.629Z,101074.25
2023-03-21T12:51:44.619Z,101048.00
2023-03-21T12:54:24.659Z,101084.59
2023-03-21T12:56:58.195Z,101075.97
2023-03-21T12:59:39.554Z,101071.13
2023-03-21T13:02:19.347Z,101064.47
2023-03-21T13:05:01.375Z,101058.94
2023-03-21T13:07:34.875Z,101057.22
2023-03-21T13:10:15.150Z,101052.22
2023-03-21T13:12:49.333Z,101055.53
2023-03-21T13:15:37.471Z,101049.97
2023-03-21T13:18:16.769Z,101055.63
2023-03-21T13:20:52.631Z,101041.72
2023-03-21T13:23:24.801Z,101036.16
2023-03-21T13:26:00.281Z,101032.03
2023-03-21T13:28:30.881Z,101032.00
2023-03-21T13:31:21.337Z,101030.09
2023-03-21T13:33:49.880Z,101039.59
2023-03-21T13:36:25.608Z,101053.66
2023-03-21T13:38:56.248Z,101049.63
2023-03-21T13:41:37.267Z,101046.88
2023-03-21T13:44:17.736Z,101047.75
2023-03-21T13:46:54.937Z,101043.78
2023-03-21T13:49:32.450Z,101049.72
2023-03-21T13:52:04.129Z,101028.22
2023-03-21T13:54:49.673Z,100992.19
2023-03-21T13:57:44.004Z,101034.22
2023-03-21T14:00:23.570Z,101025.97
2023-03-21T14:02:59.993Z,101020.38
2023-03-21T14:05:29.751Z,101008.56
2023-03-21T14:08:15.224Z,100983.41
2023-03-21T14:10:50.124Z,101015.81
2023-03-21T14:13:25.401Z,101007.47
2023-03-21T14:15:56.557Z,101020.50
2023-03-21T14:21:24.871Z,101019.00
2023-03-21T14:24:04.428Z,101016.84
2023-03-21T14:26:35.391Z,101013.53
2023-03-21T14:29:07.294Z,100999.84
2023-03-21T14:31:37.417Z,100993.28
2023-03-21T14:34:07.800Z,100988.66
2023-03-21T14:36:45.798Z,100993.50
2023-03-21T14:39:23.344Z,100993.56
2023-03-21T14:41:53.674Z,100998.66
2023-03-21T14:44:28.921Z,100994.91
2023-03-21T14:47:02.300Z,100991.59
2023-03-21T14:49:34.850Z,100993.41
2023-03-21T14:52:07.187Z,100994.00
2023-03-21T14:54:40.585Z,100995.41
2023-03-21T14:57:17.385Z,100992.78
2023-03-21T14:59:45.429Z,100983.41
2023-03-21T15:02:18.985Z,100986.28
2023-03-21T15:04:52.457Z,100992.41
2023-03-21T15:07:30.827Z,100981.66
2023-03-21T15:10:03.929Z,100986.72
2023-03-21T15:12:33.961Z,100955.56
2023-03-21T15:15:04.329Z,100972.13
2023-03-21T15:17:32.603Z,100968.47
2023-03-21T15:20:03.782Z,100975.91
2023-03-21T15:22:38.490Z,100974.59
2023-03-21T15:25:11.098Z,100971.41
2023-03-21T15:27:43.028Z,100969.56
2023-03-21T15:30:23.160Z,100970.25
2023-03-21T15:32:54.353Z,100968.72
2023-03-21T15:35:27.978Z,100938.78
2023-03-21T15:37:57.578Z,100952.66
2023-03-21T15:40:27.258Z,100956.34
2023-03-21T15:43:08.547Z,100950.41
2023-03-21T15:45:48.307Z,100941.47
2023-03-21T15:48:17.153Z,100945.53
2023-03-21T15:50:58.913Z,100948.38
2023-03-21T15:53:27.070Z,100930.44
2023-03-21T15:56:02.654Z,100937.16
2023-03-21T15:58:36.438Z,100935.63
2023-03-21T16:01:07.460Z,100904.44
2023-03-21T16:03:38.290Z,100903.81
2023-03-21T16:06:17.313Z,100929.28
2023-03-21T16:08:47.945Z,100932.16
2023-03-21T16:11:19.607Z,100933.75
2023-03-21T16:13:47.567Z,100935.72
2023-03-21T16:16:18.953Z,100936.44
2023-03-21T16:18:46.679Z,100931.38
2023-03-21T16:21:20.109Z,100932.41
2023-03-21T16:23:48.297Z,100919.44
2023-03-21T16:26:19.514Z,100923.75
2023-03-21T16:28:47.569Z,100926.72
2023-03-21T16:31:17.422Z,100931.94
2023-03-21T16:33:45.865Z,100921.69
2023-03-21T16:36:17.995Z,100926.53
2023-03-21T16:38:46.033Z,100927.66
2023-03-21T16:41:14.653Z,100923.66
2023-03-21T16:43:43.957Z,100884.22
2023-03-21T16:46:14.612Z,100917.03
2023-03-21T16:48:42.655Z,100921.41
2023-03-21T16:51:19.974Z,100917.25
2023-03-21T16:53:48.216Z,100922.13
2023-03-21T16:56:20.305Z,100922.00
2023-03-21T16:58:50.274Z,100922.16
2023-03-21T17:01:20.202Z,100918.66
2023-03-21T17:03:49.100Z,100918.13
2023-03-21T17:06:20.214Z,100924.66
2023-03-21T17:08:48.406Z,100919.97
2023-03-21T17:11:20.221Z,100917.44
2023-03-21T17:13:51.087Z,100900.66
2023-03-21T17:16:25.467Z,100921.16
2023-03-21T17:18:56.249Z,100918.97
2023-03-21T17:21:28.593Z,100922.38
2023-03-21T17:23:58.955Z,100918.91
2023-03-21T17:26:29.481Z,100883.41
2023-03-21T17:28:57.803Z,100919.75
2023-03-21T17:31:30.163Z,100914.16
2023-03-21T17:34:00.262Z,100890.78
2023-03-21T17:36:34.073Z,100914.19
2023-03-21T17:39:05.874Z,100915.38
2023-03-21T17:41:33.902Z,100912.66
2023-03-21T17:44:01.957Z,100880.16
2023-03-21T17:46:36.072Z,100877.69
2023-03-21T17:49:07.149Z,100916.59
2023-03-21T17:51:40.417Z,100911.59
2023-03-21T17:54:10.257Z,100908.34
2023-03-21T17:56:40.896Z,100913.47
2023-03-21T17:59:12.625Z,100916.06
2023-03-21T18:01:40.647Z,100911.38
2023-03-21T18:04:08.430Z,100919.75
2023-03-21T18:06:40.180Z,100884.91
2023-03-21T18:09:11.674Z,100883.31
2023-03-21T18:11:40.782Z,100917.06
2023-03-21T18:14:16.311Z,100916.16
2023-03-21T18:16:45.936Z,100920.81
2023-03-21T18:19:14.650Z,100915.75
2023-03-21T18:21:45.316Z,100912.41
2023-03-21T18:24:13.712Z,100904.19
2023-03-21T18:26:46.121Z,100900.69
2023-03-21T18:32:07.827Z,100896.63
2023-03-21T18:34:38.618Z,100893.28
2023-03-21T18:37:11.375Z,100890.63
2023-03-21T18:39:42.311Z,100891.94
2023-03-21T18:42:18.121Z,100897.63
2023-03-21T18:44:48.211Z,100895.00
2023-03-21T18:47:18.470Z,100879.88
2023-03-21T18:50:15.772Z,100882.38
2023-03-21T18:52:39.285Z,100884.03
2023-03-21T18:55:07.823Z,100899.84
2023-03-21T18:57:38.167Z,100896.72
2023-03-21T19:00:14.411Z,100863.78
2023-03-21T19:02:46.982Z,100885.94
2023-03-21T19:05:18.042Z,100879.53
2023-03-21T19:07:47.906Z,100892.81
2023-03-21T19:10:25.879Z,100881.19
2023-03-21T19:12:54.735Z,100882.53
2023-03-21T19:15:25.476Z,100874.16
2023-03-21T19:20:46.912Z,100877.03
2023-03-21T19:23:22.667Z,100875.91
2023-03-21T19:25:50.393Z,100869.97
2023-03-21T19:28:20.952Z,100873.47
2023-03-21T19:30:51.064Z,100872.72
2023-03-21T19:33:20.002Z,100869.47
2023-03-21T19:36:10.686Z,100863.66
2023-03-21T19:38:42.595Z,100865.13
2023-03-21T19:41:14.573Z,100862.75
2023-03-21T19:43:53.187Z,100861.03
2023-03-21T19:46:28.499Z,100859.34
2023-03-21T19:48:59.333Z,100834.75
2023-03-21T19:51:30.106Z,100860.28
2023-03-21T19:54:06.444Z,100857.47
2023-03-21T19:56:34.947Z,100856.78
2023-03-21T19:59:03.337Z,100847.78
2023-03-21T20:01:35.308Z,100856.72
2023-03-21T20:04:03.107Z,100861.88
2023-03-21T20:06:30.784Z,100854.09
2023-03-21T20:11:53.253Z,100844.75
2023-03-21T20:14:26.841Z,100835.50
2023-03-21T20:16:56.961Z,100842.56
2023-03-21T20:19:27.234Z,100831.38
2023-03-21T20:21:59.908Z,100837.25
2023-03-21T20:24:31.324Z,100831.31
2023-03-21T20:26:59.149Z,100830.31
2023-03-21T20:32:17.218Z,100822.03
2023-03-21T20:34:46.167Z,100815.25
2023-03-21T20:37:14.048Z,100820.09
2023-03-21T20:39:49.012Z,100821.13
2023-03-21T20:42:16.710Z,100814.41
2023-03-21T20:44:57.891Z,100816.75
2023-03-21T20:47:26.459Z,100815.88
2023-03-21T20:49:55.268Z,100784.63
2023-03-21T20:52:57.549Z,100815.09
2023-03-21T20:55:14.471Z,100821.13
2023-03-21T20:57:42.595Z,100757.78
2023-03-21T21:00:14.904Z,100815.00
2023-03-21T21:02:46.209Z,100806.03
2023-03-21T21:05:25.832Z,100809.34
2023-03-21T21:08:00.828Z,100808.19
2023-03-21T21:10:33.562Z,100801.50
2023-03-21T21:13:04.114Z,100798.22
2023-03-21T21:15:33.392Z,100793.91
2023-03-21T21:18:06.027Z,100796.28
2023-03-21T21:20:35.435Z,100796.53
2023-03-21T21:23:03.264Z,100787.06
2023-03-21T21:25:33.672Z,100793.03
2023-03-21T21:28:02.329Z,100783.72
2023-03-21T21:30:30.408Z,100784.56
2023-03-21T21:32:59.663Z,100782.94
2023-03-21T21:35:27.979Z,100783.97
2023-03-21T21:37:56.024Z,100781.31
2023-03-21T21:40:24.267Z,100778.78
2023-03-21T21:42:57.252Z,100773.16
2023-03-21T21:45:24.979Z,100775.31
2023-03-21T21:47:52.724Z,100775.28
2023-03-21T21:50:24.608Z,100767.75
2023-03-21T21:52:54.803Z,100764.28
2023-03-21T21:55:22.907Z,100765.94
2023-03-21T21:57:51.462Z,100758.41
2023-03-21T22:00:21.405Z,100760.47
2023-03-21T22:02:49.332Z,100761.13
2023-03-21T22:05:23.940Z,100757.53
2023-03-21T22:07:53.546Z,100753.25
2023-03-21T22:10:22.727Z,100720.47
2023-03-21T22:12:53.100Z,100696.81
2023-03-21T22:15:22.535Z,100744.00
2023-03-21T22:17:52.860Z,100734.84
2023-03-21T22:20:22.313Z,100738.75
2023-03-21T22:22:50.113Z,100731.88
2023-03-21T22:25:20.216Z,100724.25
2023-03-21T22:27:48.014Z,100724.06
2023-03-21T22:30:18.659Z,100723.34
2023-03-21T22:33:06.203Z,100717.63
2023-03-21T22:35:38.849Z,100717.56
2023-03-21T22:38:09.586Z,100722.84
2023-03-21T22:40:37.619Z,100702.19
2023-03-21T22:43:08.794Z,100702.09
2023-03-21T22:45:38.545Z,100695.44
2023-03-21T22:48:07.700Z,100698.13
2023-03-21T22:50:41.924Z,100694.75
2023-03-21T22:53:10.008Z,100692.13
2023-03-21T22:55:37.789Z,100687.91
2023-03-21T22:58:10.306Z,100686.84
2023-03-21T23:00:38.393Z,100681.56
2023-03-21T23:03:07.715Z,100679.03
2023-03-21T23:05:43.491Z,100672.31
2023-03-21T23:08:11.558Z,100668.84
2023-03-21T23:10:39.896Z,100668.13
2023-03-21T23:13:14.077Z,100665.56
2023-03-21T23:15:41.925Z,100656.47
2023-03-21T23:18:15.372Z,100656.16
2023-03-21T23:20:43.171Z,100645.13
2023-03-21T23:23:10.925Z,100643.59
2023-03-21T23:25:42.561Z,100644.25
2023-03-21T23:28:10.505Z,100641.03
2023-03-21T23:30:39.099Z,100635.09
2023-03-21T23:33:08.830Z,100636.66
2023-03-21T23:35:40.396Z,100622.13
2023-03-21T23:38:08.108Z,100619.72
2023-03-21T23:40:37.917Z,100613.06
2023-03-21T23:43:07.871Z,100617.03
2023-03-21T23:45:35.571Z,100611.97
2023-03-21T23:48:05.772Z,100604.31
2023-03-21T23:50:35.782Z,100608.47
2023-03-21T23:53:04.867Z,100570.53
2023-03-21T23:55:34.892Z,100599.31
2023-03-21T23:58:09.348Z,100595.78
